Time;durP1;ratioP1;P1;durP2;ratioP2;P2;SDS_P1;SDS_P2;PMS_P1;PMS_P2;Temp;Humidity;BMP_temperature;BMP_pressure;BME280_temperature;BME280_humidity;BME280_pressure;Samples;Min_cycle;Max_cycle;Signal;HPM_P1;HPM_P2
2023/10/22 00:00:46;;;;;;;171.43;7.70;;;;;;;;;;4974954;28;20607;-54
2023/10/22 00:03:11;;;;;;;104.70;5.10;;;;;;;;;;4978145;28;20478;-54
2023/10/22 00:05:36;;;;;;;147.87;6.17;;;;;;;;;;4975275;28;20039;-56
2023/10/22 00:08:02;;;;;;;132.60;5.57;;;;;;;;;;4976354;28;20521;-54
2023/10/22 00:10:27;;;;;;;185.88;7.45;;;;;;;;;;4978644;28;20050;-54
2023/10/22 00:12:53;;;;;;;261.65;9.85;;;;;;;;;;4976468;28;20337;-55
2023/10/22 00:15:18;;;;;;;183.80;7.18;;;;;;;;;;4975220;28;20019;-55
2023/10/22 00:17:43;;;;;;;165.57;6.85;;;;;;;;;;4976173;28;20048;-52
2023/10/22 00:20:09;;;;;;;157.27;6.28;;;;;;;;;;4975170;28;20500;-54
2023/10/22 00:22:34;;;;;;;144.30;6.22;;;;;;;;;;4974627;28;20458;-55
2023/10/22 00:24:59;;;;;;;181.02;7.60;;;;;;;;;;4977335;28;20037;-56
2023/10/22 00:27:25;;;;;;;191.32;7.43;;;;;;;;;;4978361;28;20077;-55
2023/10/22 00:29:50;;;;;;;232.07;9.43;;;;;;;;;;4972574;28;20065;-55
2023/10/22 00:32:15;;;;;;;130.82;5.40;;;;;;;;;;4975668;28;20397;-55
2023/10/22 00:34:40;;;;;;;126.53;5.53;;;;;;;;;;4973229;28;20025;-54
2023/10/22 00:37:06;;;;;;;123.43;5.43;;;;;;;;;;4973260;28;20342;-53
2023/10/22 00:39:31;;;;;;;77.20;4.13;;;;;;;;;;4976830;28;20042;-55
2023/10/22 00:41:56;;;;;;;218.87;9.67;;;;;;;;;;4975468;28;20521;-55
2023/10/22 00:44:22;;;;;;;125.95;5.47;;;;;;;;;;4977426;28;20299;-55
2023/10/22 00:46:47;;;;;;;160.55;7.53;;;;;;;;;;4976876;28;20426;-55
2023/10/22 00:49:13;;;;;;;92.93;4.80;;;;;;;;;;4980116;28;20019;-53
2023/10/22 00:51:38;;;;;;;104.10;4.93;;;;;;;;;;4981917;28;20436;-54
2023/10/22 00:54:04;;;;;;;99.30;4.85;;;;;;;;;;4978963;28;20026;-54
2023/10/22 00:56:29;;;;;;;115.43;5.28;;;;;;;;;;4979354;28;20038;-53
2023/10/22 00:58:56;;;;;;;209.05;9.00;;;;;;;;;;4979971;28;20030;-54
2023/10/22 01:01:21;;;;;;;95.60;4.78;;;;;;;;;;4982896;28;20162;-55
2023/10/22 01:03:46;;;;;;;128.20;5.95;;;;;;;;;;4984137;28;20034;-54
2023/10/22 01:06:12;;;;;;;105.57;5.03;;;;;;;;;;4982294;28;20414;-53
2023/10/22 01:08:39;;;;;;;85.20;4.40;;;;;;;;;;4980817;28;20372;-54
2023/10/22 01:11:08;;;;;;;77.65;4.40;;;;;;;;;;4980546;28;21336;-55
2023/10/22 01:13:33;;;;;;;96.97;4.72;;;;;;;;;;4981833;28;20038;-56
2023/10/22 01:15:59;;;;;;;225.13;9.95;;;;;;;;;;4979334;28;20086;-53
2023/10/22 01:18:24;;;;;;;107.72;5.40;;;;;;;;;;4980262;28;20031;-54
2023/10/22 01:20:49;;;;;;;183.90;8.57;;;;;;;;;;4978877;28;20035;-54
2023/10/22 01:23:15;;;;;;;122.22;6.15;;;;;;;;;;4980458;28;20569;-55
2023/10/22 01:25:40;;;;;;;99.73;5.10;;;;;;;;;;4981902;28;20038;-55
2023/10/22 01:28:06;;;;;;;82.70;4.53;;;;;;;;;;4979940;28;20376;-55
2023/10/22 01:30:31;;;;;;;163.25;7.03;;;;;;;;;;4980530;28;20490;-55
2023/10/22 01:32:56;;;;;;;191.57;9.15;;;;;;;;;;4981053;28;20073;-54
2023/10/22 01:35:21;;;;;;;120.20;5.72;;;;;;;;;;4981577;28;20022;-55
2023/10/22 01:37:47;;;;;;;109.63;5.13;;;;;;;;;;4977591;28;20030;-54
2023/10/22 01:40:12;;;;;;;88.03;4.88;;;;;;;;;;4980285;28;20503;-53
2023/10/22 01:42:38;;;;;;;81.30;4.57;;;;;;;;;;4981120;28;20116;-53
2023/10/22 01:45:06;;;;;;;161.27;7.33;;;;;;;;;;4979915;28;20026;-55
2023/10/22 01:47:31;;;;;;;123.47;6.00;;;;;;;;;;4981611;28;20285;-54
2023/10/22 01:49:57;;;;;;;183.10;8.65;;;;;;;;;;4980148;28;20018;-55
2023/10/22 01:52:23;;;;;;;141.55;6.22;;;;;;;;;;4982743;28;20046;-55
2023/10/22 01:54:49;;;;;;;112.28;5.60;;;;;;;;;;4978850;28;20027;-54
2023/10/22 01:57:15;;;;;;;76.88;4.53;;;;;;;;;;4982463;28;20299;-55
2023/10/22 01:59:41;;;;;;;79.47;4.37;;;;;;;;;;4984764;28;20165;-53
2023/10/22 02:02:07;;;;;;;129.85;6.13;;;;;;;;;;4979452;28;20287;-55
2023/10/22 02:04:32;;;;;;;78.70;4.50;;;;;;;;;;4980871;28;20035;-55
2023/10/22 02:06:57;;;;;;;193.52;8.75;;;;;;;;;;4978492;28;20042;-54
2023/10/22 02:09:23;;;;;;;133.50;6.03;;;;;;;;;;4980249;28;20054;-54
2023/10/22 02:11:49;;;;;;;85.22;4.63;;;;;;;;;;4980012;28;20368;-53
2023/10/22 02:14:14;;;;;;;102.95;5.22;;;;;;;;;;4981689;28;20058;-55
2023/10/22 02:16:39;;;;;;;100.60;5.03;;;;;;;;;;4981797;28;20096;-56
2023/10/22 02:19:05;;;;;;;206.75;9.55;;;;;;;;;;4979688;28;20034;-55
2023/10/22 02:21:30;;;;;;;97.22;4.93;;;;;;;;;;4982084;28;20361;-55
2023/10/22 02:23:55;;;;;;;256.37;10.90;;;;;;;;;;4980996;28;20030;-55
2023/10/22 02:26:21;;;;;;;122.85;5.40;;;;;;;;;;4982100;28;20385;-54
2023/10/22 02:28:46;;;;;;;89.43;4.50;;;;;;;;;;4978828;28;20418;-55
2023/10/22 02:31:11;;;;;;;92.30;4.55;;;;;;;;;;4979042;28;20289;-54
2023/10/22 02:33:40;;;;;;;85.95;4.60;;;;;;;;;;4981270;28;20370;-54
2023/10/22 02:36:06;;;;;;;189.63;8.93;;;;;;;;;;4976263;28;20030;-53
2023/10/22 02:38:32;;;;;;;100.57;5.40;;;;;;;;;;4981101;28;20354;-55
2023/10/22 02:40:57;;;;;;;215.35;10.00;;;;;;;;;;4980990;28;20422;-56
2023/10/22 02:43:22;;;;;;;123.77;5.57;;;;;;;;;;4980274;28;20049;-53
2023/10/22 02:45:48;;;;;;;92.72;4.88;;;;;;;;;;4980129;28;20280;-54
2023/10/22 02:48:13;;;;;;;113.72;5.55;;;;;;;;;;4980801;28;20026;-53
2023/10/22 02:50:38;;;;;;;112.40;5.70;;;;;;;;;;4978868;28;20500;-55
2023/10/22 02:53:04;;;;;;;196.77;8.57;;;;;;;;;;4978623;28;20269;-54
2023/10/22 02:55:29;;;;;;;153.80;6.53;;;;;;;;;;4979074;28;20262;-55
2023/10/22 02:57:54;;;;;;;162.13;7.33;;;;;;;;;;4979401;28;20280;-54
2023/10/22 03:00:20;;;;;;;130.90;5.87;;;;;;;;;;4979874;28;20278;-53
2023/10/22 03:02:45;;;;;;;118.03;5.45;;;;;;;;;;4981026;28;20277;-55
2023/10/22 03:05:10;;;;;;;113.00;5.68;;;;;;;;;;4980402;28;20565;-53
2023/10/22 03:07:36;;;;;;;80.87;4.47;;;;;;;;;;4980901;28;20095;-55
2023/10/22 03:10:01;;;;;;;233.90;9.97;;;;;;;;;;4977965;28;20277;-54
2023/10/22 03:12:26;;;;;;;123.45;5.53;;;;;;;;;;4978702;28;20970;-54
2023/10/22 03:14:52;;;;;;;100.20;4.72;;;;;;;;;;4979249;28;20054;-53
2023/10/22 03:17:18;;;;;;;147.73;6.18;;;;;;;;;;4977859;28;20469;-53
2023/10/22 03:19:43;;;;;;;113.00;5.32;;;;;;;;;;4980575;28;20039;-54
2023/10/22 03:22:08;;;;;;;164.60;7.63;;;;;;;;;;4981058;28;20053;-54
2023/10/22 03:24:33;;;;;;;123.88;5.93;;;;;;;;;;4978166;28;20266;-54
2023/10/22 03:26:59;;;;;;;236.30;10.10;;;;;;;;;;4976576;28;20049;-52
2023/10/22 03:29:25;;;;;;;131.90;5.93;;;;;;;;;;4978328;28;20014;-54
2023/10/22 03:31:50;;;;;;;113.15;5.47;;;;;;;;;;4977760;28;20637;-54
2023/10/22 03:34:15;;;;;;;105.35;5.13;;;;;;;;;;4979813;28;20014;-54
2023/10/22 03:36:41;;;;;;;66.38;3.95;;;;;;;;;;4979866;28;20173;-56
2023/10/22 03:39:06;;;;;;;141.77;6.00;;;;;;;;;;4979873;28;20038;-54
2023/10/22 03:41:32;;;;;;;134.85;5.75;;;;;;;;;;4979248;28;20603;-55
2023/10/22 03:43:57;;;;;;;216.20;9.15;;;;;;;;;;4978635;28;20029;-54
2023/10/22 03:46:23;;;;;;;123.40;5.80;;;;;;;;;;4979544;28;20034;-54
2023/10/22 03:48:48;;;;;;;124.10;5.57;;;;;;;;;;4980448;28;20572;-53
2023/10/22 03:51:13;;;;;;;79.47;4.57;;;;;;;;;;4980431;28;20653;-53
2023/10/22 03:53:38;;;;;;;112.20;5.60;;;;;;;;;;4979876;28;20262;-54
2023/10/22 03:56:03;;;;;;;228.63;9.90;;;;;;;;;;4979215;28;20034;-55
2023/10/22 03:58:29;;;;;;;72.65;4.07;;;;;;;;;;4982188;28;20696;-54
2023/10/22 04:00:57;;;;;;;104.00;5.03;;;;;;;;;;4979316;28;20975;-53
2023/10/22 04:03:22;;;;;;;133.98;6.10;;;;;;;;;;4980970;28;20740;-53
2023/10/22 04:05:53;;;;;;;76.07;4.35;;;;;;;;;;4978018;28;20042;-53
2023/10/22 04:08:18;;;;;;;97.68;4.97;;;;;;;;;;4977434;28;20041;-54
2023/10/22 04:10:46;;;;;;;116.07;5.93;;;;;;;;;;4979108;28;20034;-53
2023/10/22 04:13:11;;;;;;;217.45;10.07;;;;;;;;;;4977511;28;20177;-54
2023/10/22 04:15:37;;;;;;;80.83;4.77;;;;;;;;;;4980482;28;20138;-55
2023/10/22 04:18:03;;;;;;;189.27;8.68;;;;;;;;;;4979622;28;20898;-54
2023/10/22 04:20:31;;;;;;;152.23;6.82;;;;;;;;;;4980571;28;20045;-53
2023/10/22 04:22:56;;;;;;;104.10;5.13;;;;;;;;;;4980294;28;20041;-52
2023/10/22 04:25:21;;;;;;;143.35;6.57;;;;;;;;;;4976315;28;20250;-54
2023/10/22 04:27:47;;;;;;;103.63;5.73;;;;;;;;;;4981605;28;20053;-53
2023/10/22 04:30:13;;;;;;;136.90;6.63;;;;;;;;;;4984727;28;20686;-54
2023/10/22 04:32:38;;;;;;;56.80;4.25;;;;;;;;;;4982024;28;20498;-55
2023/10/22 04:35:04;;;;;;;181.38;8.55;;;;;;;;;;4985531;28;20026;-53
2023/10/22 04:37:29;;;;;;;122.60;5.65;;;;;;;;;;4982112;28;20037;-53
2023/10/22 04:39:57;;;;;;;83.10;4.33;;;;;;;;;;4982386;28;20688;-54
2023/10/22 04:42:24;;;;;;;126.78;6.60;;;;;;;;;;4982566;28;20392;-53
2023/10/22 04:44:49;;;;;;;85.20;4.47;;;;;;;;;;4980713;28;20030;-54
2023/10/22 04:47:14;;;;;;;187.10;9.73;;;;;;;;;;4981494;28;20046;-52
2023/10/22 04:49:40;;;;;;;114.50;6.32;;;;;;;;;;4981645;28;20484;-53
2023/10/22 04:52:09;;;;;;;180.63;9.32;;;;;;;;;;4979903;28;20191;-53
2023/10/22 04:54:34;;;;;;;82.60;5.20;;;;;;;;;;4980901;28;20026;-53
2023/10/22 04:57:02;;;;;;;130.65;7.10;;;;;;;;;;4980995;28;20421;-53
2023/10/22 04:59:27;;;;;;;121.65;5.93;;;;;;;;;;4983219;28;20027;-53
2023/10/22 05:01:52;;;;;;;115.57;5.50;;;;;;;;;;4981710;28;20066;-54
2023/10/22 05:04:17;;;;;;;106.57;6.23;;;;;;;;;;4980237;28;20285;-53
2023/10/22 05:06:43;;;;;;;87.00;5.20;;;;;;;;;;4981114;28;20293;-52
2023/10/22 05:09:08;;;;;;;152.05;7.35;;;;;;;;;;4981241;28;20265;-53
2023/10/22 05:11:34;;;;;;;95.28;5.05;;;;;;;;;;4981862;28;20370;-53
2023/10/22 05:13:59;;;;;;;123.00;6.57;;;;;;;;;;4980157;28;20031;-52
2023/10/22 05:16:24;;;;;;;114.90;6.10;;;;;;;;;;4981790;28;20278;-52
2023/10/22 05:18:49;;;;;;;90.22;5.10;;;;;;;;;;4983453;28;20231;-53
2023/10/22 05:21:15;;;;;;;182.43;8.20;;;;;;;;;;4982130;28;20043;-52
2023/10/22 05:23:40;;;;;;;101.68;5.68;;;;;;;;;;4983008;28;20269;-52
2023/10/22 05:26:12;;;;;;;179.45;8.98;;;;;;;;;;4979587;28;20345;-52
2023/10/22 05:28:37;;;;;;;115.07;6.65;;;;;;;;;;4981079;28;20014;-53
2023/10/22 05:31:11;;;;;;;163.57;7.72;;;;;;;;;;4980591;28;20041;-53
2023/10/22 05:33:37;;;;;;;116.25;6.15;;;;;;;;;;4981992;28;20113;-52
2023/10/22 05:36:03;;;;;;;152.23;6.88;;;;;;;;;;4978700;28;20140;-53
2023/10/22 05:38:28;;;;;;;129.98;7.20;;;;;;;;;;4982207;28;20026;-53
2023/10/22 05:40:53;;;;;;;143.50;7.05;;;;;;;;;;4982010;28;20040;-53
2023/10/22 05:43:19;;;;;;;112.60;5.82;;;;;;;;;;4979451;28;20389;-52
2023/10/22 05:45:44;;;;;;;109.20;6.00;;;;;;;;;;4980685;28;20347;-53
2023/10/22 05:48:09;;;;;;;219.95;10.57;;;;;;;;;;4979897;28;20552;-54
2023/10/22 05:50:39;;;;;;;124.50;6.57;;;;;;;;;;4979863;28;20108;-53
2023/10/22 05:53:04;;;;;;;149.30;7.65;;;;;;;;;;4980594;28;20277;-52
2023/10/22 05:55:29;;;;;;;142.30;6.88;;;;;;;;;;4980267;28;20061;-53
2023/10/22 05:57:54;;;;;;;120.88;6.10;;;;;;;;;;4981111;28;20029;-54
2023/10/22 06:00:20;;;;;;;116.73;6.60;;;;;;;;;;4980361;28;20553;-53
2023/10/22 06:02:45;;;;;;;115.43;6.88;;;;;;;;;;4979940;28;20772;-53
2023/10/22 06:05:12;;;;;;;203.30;9.77;;;;;;;;;;4977538;28;20305;-55
2023/10/22 06:07:37;;;;;;;70.20;4.13;;;;;;;;;;4981182;28;20018;-51
2023/10/22 06:10:03;;;;;;;111.82;6.20;;;;;;;;;;4979886;28;20030;-53
2023/10/22 06:12:29;;;;;;;129.07;7.25;;;;;;;;;;4979848;28;20395;-53
2023/10/22 06:14:54;;;;;;;82.72;5.63;;;;;;;;;;4980362;28;20046;-56
2023/10/22 06:17:19;;;;;;;154.70;7.57;;;;;;;;;;4981526;28;20042;-55
2023/10/22 06:19:44;;;;;;;105.53;6.40;;;;;;;;;;4981095;28;20406;-53
2023/10/22 06:22:10;;;;;;;189.10;11.30;;;;;;;;;;4978931;28;20643;-55
2023/10/22 06:24:35;;;;;;;102.97;5.97;;;;;;;;;;4980649;28;20025;-54
2023/10/22 06:27:00;;;;;;;93.97;6.88;;;;;;;;;;4979559;28;20635;-53
2023/10/22 06:29:26;;;;;;;120.15;8.30;;;;;;;;;;4978753;28;20019;-54
2023/10/22 06:31:51;;;;;;;119.00;8.20;;;;;;;;;;4980160;28;20185;-54
2023/10/22 06:34:16;;;;;;;221.48;12.27;;;;;;;;;;4978759;28;20023;-54
2023/10/22 06:36:42;;;;;;;86.00;7.13;;;;;;;;;;4980163;28;20026;-55
2023/10/22 06:39:07;;;;;;;154.80;10.68;;;;;;;;;;4981553;28;20037;-55
2023/10/22 06:41:32;;;;;;;119.93;7.95;;;;;;;;;;4978804;28;20042;-55
2023/10/22 06:43:57;;;;;;;130.45;9.18;;;;;;;;;;4980608;28;20030;-56
2023/10/22 06:46:23;;;;;;;120.57;7.57;;;;;;;;;;4980256;28;20042;-55
2023/10/22 06:48:48;;;;;;;127.10;7.90;;;;;;;;;;4980737;28;20034;-55
2023/10/22 06:51:17;;;;;;;166.13;9.98;;;;;;;;;;4978075;28;20529;-55
2023/10/22 06:53:46;;;;;;;96.72;7.05;;;;;;;;;;4980734;28;20580;-55
2023/10/22 06:56:12;;;;;;;174.55;10.18;;;;;;;;;;4976627;28;20126;-56
2023/10/22 06:58:37;;;;;;;99.30;7.75;;;;;;;;;;4979504;28;20098;-56
2023/10/22 07:01:06;;;;;;;91.88;7.20;;;;;;;;;;4982369;28;20185;-55
2023/10/22 07:03:35;;;;;;;132.18;8.23;;;;;;;;;;4979387;28;20482;-55
2023/10/22 07:06:00;;;;;;;101.07;7.65;;;;;;;;;;4977817;28;20046;-56
2023/10/22 07:08:26;;;;;;;122.03;8.73;;;;;;;;;;4977394;28;20034;-55
2023/10/22 07:10:52;;;;;;;94.47;7.80;;;;;;;;;;4979665;28;20340;-55
2023/10/22 07:13:18;;;;;;;238.60;12.55;;;;;;;;;;4978287;28;20030;-55
2023/10/22 07:15:43;;;;;;;104.97;7.85;;;;;;;;;;4980957;28;20121;-55
2023/10/22 07:18:08;;;;;;;112.10;8.65;;;;;;;;;;4980623;28;20026;-56
2023/10/22 07:20:34;;;;;;;141.10;8.20;;;;;;;;;;4980880;28;20034;-56
2023/10/22 07:23:01;;;;;;;87.28;9.52;;;;;;;;;;4980574;28;20356;-55
2023/10/22 07:25:26;;;;;;;124.90;9.93;;;;;;;;;;4979415;28;20565;-55
2023/10/22 07:27:51;;;;;;;188.45;15.82;;;;;;;;;;4981247;28;20022;-55
2023/10/22 07:30:17;;;;;;;534.00;30.60;;;;;;;;;;4978273;28;20030;-55
2023/10/22 07:32:42;;;;;;;80.63;10.52;;;;;;;;;;4980197;28;20257;-56
2023/10/22 07:35:08;;;;;;;120.90;11.10;;;;;;;;;;4979146;28;20060;-56
2023/10/22 07:37:33;;;;;;;137.18;11.57;;;;;;;;;;4978869;28;20583;-56
2023/10/22 07:39:59;;;;;;;101.53;7.90;;;;;;;;;;4977957;28;20034;-55
2023/10/22 07:42:24;;;;;;;206.32;12.02;;;;;;;;;;4978076;28;20851;-57
2023/10/22 07:44:52;;;;;;;91.77;6.27;;;;;;;;;;4979486;28;20038;-57
2023/10/22 07:47:17;;;;;;;186.20;10.90;;;;;;;;;;4976439;28;20494;-54
2023/10/22 07:49:43;;;;;;;96.50;6.57;;;;;;;;;;4977145;28;20118;-54
2023/10/22 07:52:09;;;;;;;88.07;6.23;;;;;;;;;;4975857;28;20593;-52
2023/10/22 07:54:34;;;;;;;75.95;5.20;;;;;;;;;;4981007;28;20050;-53
2023/10/22 07:56:59;;;;;;;91.00;5.90;;;;;;;;;;4979473;28;20053;-54
2023/10/22 07:59:25;;;;;;;205.15;11.32;;;;;;;;;;4981343;28;20281;-54
2023/10/22 08:01:50;;;;;;;94.07;7.10;;;;;;;;;;4985107;28;20043;-54
2023/10/22 08:04:15;;;;;;;193.98;11.65;;;;;;;;;;4981297;28;20026;-52
2023/10/22 08:06:40;;;;;;;95.50;7.93;;;;;;;;;;4982397;28;20097;-54
2023/10/22 08:09:06;;;;;;;77.43;8.07;;;;;;;;;;4984222;28;20027;-53
2023/10/22 08:11:32;;;;;;;104.47;6.55;;;;;;;;;;4979704;28;20893;-54
2023/10/22 08:13:57;;;;;;;148.07;8.00;;;;;;;;;;4983541;28;20083;-54
2023/10/22 08:16:22;;;;;;;174.07;11.57;;;;;;;;;;4983257;28;20031;-53
2023/10/22 08:18:47;;;;;;;101.95;6.00;;;;;;;;;;4981733;28;20078;-54
2023/10/22 08:21:13;;;;;;;165.82;8.18;;;;;;;;;;4981440;28;20038;-54
2023/10/22 08:23:39;;;;;;;89.25;4.60;;;;;;;;;;4984082;28;20427;-54
2023/10/22 08:26:04;;;;;;;99.85;5.05;;;;;;;;;;4981337;28;20125;-55
2023/10/22 08:28:29;;;;;;;145.98;8.02;;;;;;;;;;4980777;28;20034;-53
2023/10/22 08:30:54;;;;;;;125.13;8.00;;;;;;;;;;4982891;28;20475;-53
2023/10/22 08:33:20;;;;;;;248.20;12.37;;;;;;;;;;4984470;28;20564;-55
2023/10/22 08:35:45;;;;;;;148.30;8.70;;;;;;;;;;4984898;28;20388;-52
2023/10/22 08:38:10;;;;;;;109.63;6.78;;;;;;;;;;4983518;28;20089;-53
2023/10/22 08:40:37;;;;;;;116.05;6.88;;;;;;;;;;4985159;28;20039;-54
2023/10/22 08:43:04;;;;;;;122.22;6.70;;;;;;;;;;4984705;28;20037;-54
2023/10/22 08:45:30;;;;;;;142.27;7.78;;;;;;;;;;4978332;28;20031;-55
2023/10/22 08:47:55;;;;;;;88.95;5.50;;;;;;;;;;4982280;28;20033;-57
2023/10/22 08:50:22;;;;;;;276.40;13.00;;;;;;;;;;4979556;28;20030;-57
2023/10/22 08:52:48;;;;;;;97.50;6.68;;;;;;;;;;4982967;28;20395;-56
2023/10/22 08:55:13;;;;;;;104.60;5.40;;;;;;;;;;4982247;28;20514;-56
2023/10/22 08:57:40;;;;;;;86.95;4.75;;;;;;;;;;4984058;28;21166;-56
2023/10/22 09:00:09;;;;;;;67.57;3.88;;;;;;;;;;4981635;28;20550;-57
2023/10/22 09:02:35;;;;;;;113.70;5.82;;;;;;;;;;4979894;28;20018;-57
2023/10/22 09:05:00;;;;;;;86.88;7.28;;;;;;;;;;4982028;28;20033;-56
2023/10/22 09:07:52;;;;;;;210.03;9.83;;;;;;;;;;4979324;28;20565;-57
2023/10/22 09:10:24;;;;;;;152.63;7.32;;;;;;;;;;4980465;28;20352;-54
2023/10/22 09:12:49;;;;;;;89.82;4.70;;;;;;;;;;4982515;28;20081;-55
2023/10/22 09:15:14;;;;;;;138.48;6.78;;;;;;;;;;4979610;28;20382;-55
2023/10/22 09:17:42;;;;;;;107.63;12.13;;;;;;;;;;4983701;28;20025;-55
2023/10/22 09:20:20;;;;;;;67.45;3.80;;;;;;;;;;4986525;28;20266;-54
2023/10/22 09:22:46;;;;;;;73.35;10.52;;;;;;;;;;4985607;28;20478;-53
2023/10/22 09:25:12;;;;;;;99.10;7.82;;;;;;;;;;4982227;28;20093;-55
2023/10/22 09:27:39;;;;;;;108.57;7.13;;;;;;;;;;4982175;28;20487;-55
2023/10/22 09:30:05;;;;;;;80.57;5.25;;;;;;;;;;4982489;28;20023;-55
2023/10/22 09:32:30;;;;;;;357.38;39.22;;;;;;;;;;4979632;28;20464;-55
2023/10/22 09:35:10;;;;;;;202.02;39.72;;;;;;;;;;4982924;28;20552;-54
2023/10/22 09:37:58;;;;;;;113.28;16.42;;;;;;;;;;4979909;28;20052;-53
2023/10/22 09:40:23;;;;;;;299.10;31.60;;;;;;;;;;4978385;28;20430;-53
2023/10/22 09:42:49;;;;;;;160.40;13.40;;;;;;;;;;4978456;28;20493;-54
2023/10/22 09:45:15;;;;;;;124.25;8.80;;;;;;;;;;4976421;28;20270;-55
2023/10/22 09:47:40;;;;;;;90.72;10.20;;;;;;;;;;4977856;28;20486;-56
2023/10/22 09:50:08;;;;;;;119.63;5.50;;;;;;;;;;4978859;28;20025;-54
2023/10/22 09:52:35;;;;;;;109.65;5.13;;;;;;;;;;4978327;28;20274;-55
2023/10/22 09:55:02;;;;;;;155.50;15.38;;;;;;;;;;4979725;28;20041;-55
2023/10/22 09:57:30;;;;;;;245.32;15.60;;;;;;;;;;4974405;28;20829;-55
2023/10/22 09:59:58;;;;;;;120.18;5.68;;;;;;;;;;4977274;28;20376;-54
2023/10/22 10:02:25;;;;;;;206.90;9.98;;;;;;;;;;4976973;28;20049;-54
2023/10/22 10:04:52;;;;;;;116.75;11.43;;;;;;;;;;4979838;28;20026;-56
2023/10/22 10:07:18;;;;;;;239.30;25.42;;;;;;;;;;4977674;28;20030;-54
2023/10/22 10:09:44;;;;;;;120.93;5.38;;;;;;;;;;4978119;28;20030;-55
2023/10/22 10:12:12;;;;;;;98.78;5.05;;;;;;;;;;4980088;28;20037;-54
2023/10/22 10:14:38;;;;;;;268.90;48.47;;;;;;;;;;4977390;28;20545;-54
2023/10/22 10:17:03;;;;;;;183.98;31.65;;;;;;;;;;4978549;28;20034;-54
2023/10/22 10:19:29;;;;;;;203.38;14.65;;;;;;;;;;4977992;28;20048;-55
2023/10/22 10:21:54;;;;;;;133.52;8.50;;;;;;;;;;4978426;28;20288;-55
2023/10/22 10:24:21;;;;;;;296.63;25.42;;;;;;;;;;4978998;28;20517;-55
2023/10/22 10:27:11;;;;;;;136.82;13.13;;;;;;;;;;4979300;28;20042;-54
2023/10/22 10:29:36;;;;;;;119.07;5.47;;;;;;;;;;4975396;28;20613;-53
2023/10/22 10:32:13;;;;;;;127.35;5.70;;;;;;;;;;4977687;28;20042;-55
2023/10/22 10:34:40;;;;;;;151.93;6.57;;;;;;;;;;4979740;28;20072;-54
2023/10/22 10:37:15;;;;;;;131.43;7.10;;;;;;;;;;4978870;28;20077;-54
2023/10/22 10:39:44;;;;;;;64.93;3.63;;;;;;;;;;4978475;28;20034;-54
2023/10/22 10:42:10;;;;;;;110.63;5.18;;;;;;;;;;4978382;28;20145;-54
2023/10/22 10:44:58;;;;;;;187.95;8.05;;;;;;;;;;4977383;28;20157;-55
2023/10/22 10:47:27;;;;;;;152.52;6.93;;;;;;;;;;4978361;28;20045;-54
2023/10/22 10:49:52;;;;;;;125.18;5.80;;;;;;;;;;4981607;28;20022;-58
2023/10/22 10:52:18;;;;;;;129.40;6.03;;;;;;;;;;4979652;28;20214;-53
2023/10/22 10:54:57;;;;;;;120.03;5.67;;;;;;;;;;4980573;28;20391;-53
2023/10/22 10:57:37;;;;;;;141.38;6.88;;;;;;;;;;4978367;28;20282;-55
2023/10/22 11:00:09;;;;;;;88.22;4.43;;;;;;;;;;4980136;28;20056;-57
2023/10/22 11:02:45;;;;;;;118.10;9.90;;;;;;;;;;4970460;28;20506;-55
2023/10/22 11:05:11;;;;;;;159.55;6.90;;;;;;;;;;4975063;28;20527;-56
2023/10/22 11:07:36;;;;;;;196.95;8.15;;;;;;;;;;4975191;28;20552;-53
2023/10/22 11:10:13;;;;;;;174.15;7.55;;;;;;;;;;4975108;28;20028;-56
2023/10/22 11:12:39;;;;;;;200.98;17.58;;;;;;;;;;4975024;28;20474;-56
2023/10/22 11:15:05;;;;;;;194.02;18.92;;;;;;;;;;4975351;28;20179;-57
2023/10/22 11:17:31;;;;;;;147.95;6.60;;;;;;;;;;4975483;28;20157;-54
2023/10/22 11:19:56;;;;;;;116.47;5.83;;;;;;;;;;4977946;28;20124;-55
2023/10/22 11:22:22;;;;;;;139.32;6.28;;;;;;;;;;4975159;28;20293;-55
2023/10/22 11:24:47;;;;;;;157.93;22.20;;;;;;;;;;4976238;28;20040;-56
2023/10/22 11:27:14;;;;;;;125.32;5.70;;;;;;;;;;4975838;28;20406;-55
2023/10/22 11:29:43;;;;;;;123.53;11.68;;;;;;;;;;4975958;28;20111;-55
2023/10/22 11:32:12;;;;;;;137.10;5.95;;;;;;;;;;4974033;28;20062;-57
2023/10/22 11:34:45;;;;;;;424.17;55.20;;;;;;;;;;4974562;28;20314;-58
2023/10/22 11:37:11;;;;;;;126.50;5.78;;;;;;;;;;4977450;28;20596;-57
2023/10/22 11:39:36;;;;;;;158.25;6.95;;;;;;;;;;4976622;28;20366;-57
2023/10/22 11:42:03;;;;;;;148.55;14.55;;;;;;;;;;4976892;28;20568;-58
2023/10/22 11:44:33;;;;;;;160.73;8.40;;;;;;;;;;4976018;28;20030;-57
2023/10/22 11:47:03;;;;;;;108.13;5.10;;;;;;;;;;4973268;28;20034;-57
2023/10/22 11:49:28;;;;;;;217.15;8.90;;;;;;;;;;4975493;28;20014;-57
2023/10/22 11:51:54;;;;;;;156.95;6.40;;;;;;;;;;4976412;28;20093;-58
2023/10/22 11:54:34;;;;;;;143.60;7.70;;;;;;;;;;4977774;28;20099;-57
2023/10/22 11:56:59;;;;;;;103.95;5.05;;;;;;;;;;4977200;28;20229;-57
2023/10/22 11:59:25;;;;;;;167.23;7.30;;;;;;;;;;4974611;28;20073;-56
2023/10/22 12:01:50;;;;;;;136.63;6.00;;;;;;;;;;4976289;28;20854;-55
2023/10/22 12:04:18;;;;;;;82.67;4.20;;;;;;;;;;4975886;28;20717;-57
2023/10/22 12:06:44;;;;;;;99.47;4.78;;;;;;;;;;4975802;28;20381;-55
2023/10/22 12:09:09;;;;;;;155.60;6.63;;;;;;;;;;4976516;28;20109;-56
2023/10/22 12:11:37;;;;;;;139.68;6.25;;;;;;;;;;4977113;28;20313;-56
2023/10/22 12:14:03;;;;;;;196.27;16.52;;;;;;;;;;4977245;28;20034;-56
2023/10/22 12:16:28;;;;;;;218.65;11.77;;;;;;;;;;4974681;28;20092;-55
2023/10/22 12:18:53;;;;;;;167.70;8.63;;;;;;;;;;4977514;28;20030;-54
2023/10/22 12:21:18;;;;;;;158.17;6.23;;;;;;;;;;4974738;28;20096;-56
2023/10/22 12:23:44;;;;;;;229.73;8.70;;;;;;;;;;4976331;28;20026;-56
2023/10/22 12:26:09;;;;;;;164.48;6.63;;;;;;;;;;4975590;28;20097;-57
2023/10/22 12:28:35;;;;;;;215.45;8.73;;;;;;;;;;4975034;28;20042;-57
2023/10/22 12:31:00;;;;;;;192.55;7.70;;;;;;;;;;4974810;28;20042;-56
2023/10/22 12:33:25;;;;;;;212.50;8.40;;;;;;;;;;4976096;28;20154;-56
2023/10/22 12:35:51;;;;;;;141.80;5.97;;;;;;;;;;4976033;28;20898;-57
2023/10/22 12:38:16;;;;;;;185.50;7.10;;;;;;;;;;4977056;28;20277;-56
2023/10/22 12:40:41;;;;;;;195.33;7.97;;;;;;;;;;4972384;28;20406;-56
2023/10/22 12:43:06;;;;;;;189.10;22.23;;;;;;;;;;4975003;28;20395;-57
2023/10/22 12:45:31;;;;;;;261.98;12.13;;;;;;;;;;4976248;28;20313;-57
2023/10/22 12:47:57;;;;;;;163.10;8.83;;;;;;;;;;4976635;28;20419;-57
2023/10/22 12:50:22;;;;;;;169.87;7.43;;;;;;;;;;4978158;28;20268;-56
2023/10/22 12:52:48;;;;;;;152.13;6.50;;;;;;;;;;4978364;28;20357;-55
2023/10/22 12:55:13;;;;;;;114.68;5.38;;;;;;;;;;4980783;28;20390;-55
2023/10/22 12:57:38;;;;;;;177.95;7.75;;;;;;;;;;4981251;28;20379;-55
2023/10/22 13:00:05;;;;;;;108.70;4.75;;;;;;;;;;4980513;28;20250;-55
2023/10/22 13:02:33;;;;;;;152.38;6.85;;;;;;;;;;4979135;28;20038;-55
2023/10/22 13:04:58;;;;;;;141.05;11.32;;;;;;;;;;4979315;28;20023;-56
2023/10/22 13:07:23;;;;;;;181.23;7.25;;;;;;;;;;4978446;28;20128;-56
2023/10/22 13:09:49;;;;;;;142.60;8.53;;;;;;;;;;4980177;28;20022;-57
2023/10/22 13:12:14;;;;;;;338.70;87.00;;;;;;;;;;4980534;28;20589;-57
2023/10/22 13:14:39;;;;;;;168.57;11.75;;;;;;;;;;4977435;28;20253;-56
2023/10/22 13:17:04;;;;;;;112.17;5.00;;;;;;;;;;4975786;28;20407;-57
2023/10/22 13:19:30;;;;;;;223.85;13.43;;;;;;;;;;4977511;28;20372;-57
2023/10/22 13:21:55;;;;;;;266.87;25.90;;;;;;;;;;4977336;28;20034;-56
2023/10/22 13:24:21;;;;;;;160.07;6.63;;;;;;;;;;4978029;28;20261;-58
2023/10/22 13:26:46;;;;;;;158.82;8.52;;;;;;;;;;4977306;28;20297;-57
2023/10/22 13:29:12;;;;;;;168.15;7.18;;;;;;;;;;4980074;28;20026;-56
2023/10/22 13:31:37;;;;;;;174.48;7.20;;;;;;;;;;4976060;28;20415;-56
2023/10/22 13:34:04;;;;;;;248.87;31.30;;;;;;;;;;4976365;28;20232;-55
2023/10/22 13:36:29;;;;;;;221.07;8.98;;;;;;;;;;4976729;28;20274;-56
2023/10/22 13:38:54;;;;;;;154.85;6.30;;;;;;;;;;4977589;28;20097;-56
2023/10/22 13:41:20;;;;;;;204.23;20.93;;;;;;;;;;4978242;28;20038;-56
2023/10/22 13:43:45;;;;;;;203.68;7.93;;;;;;;;;;4979874;28;20265;-54
2023/10/22 13:46:11;;;;;;;173.03;6.90;;;;;;;;;;4978875;28;20042;-56
2023/10/22 13:48:36;;;;;;;199.60;8.53;;;;;;;;;;4978767;28;20860;-56
2023/10/22 13:51:04;;;;;;;329.02;48.28;;;;;;;;;;4969093;28;20297;-55
2023/10/22 13:53:30;;;;;;;159.02;6.90;;;;;;;;;;4977673;28;20045;-55
2023/10/22 13:55:56;;;;;;;102.88;4.63;;;;;;;;;;4977225;28;20031;-55
2023/10/22 13:58:21;;;;;;;153.23;9.40;;;;;;;;;;4977865;28;20037;-57
2023/10/22 14:00:46;;;;;;;143.67;11.00;;;;;;;;;;4977000;28;20510;-55
2023/10/22 14:03:11;;;;;;;112.15;5.22;;;;;;;;;;4977610;28;20582;-57
2023/10/22 14:05:37;;;;;;;156.77;10.40;;;;;;;;;;4974627;28;20042;-56
2023/10/22 14:08:02;;;;;;;88.40;4.07;;;;;;;;;;4977927;28;20400;-56
2023/10/22 14:10:28;;;;;;;155.03;7.57;;;;;;;;;;4976055;28;20353;-57
2023/10/22 14:12:54;;;;;;;130.43;5.55;;;;;;;;;;4978254;28;20269;-55